Terminal Aerodrome Forecast
Issued by NWS Wakefield, VA

Home | Current Version | Previous Version | Text Only | Print | Product List | Glossary On
Versions: 1 2 3 4 5 6 7 8 9 10 11 12 13 14 15 16 17 18 19 20 21 22 23
000
FTUS41 KAKQ 180539
TAFRIC
TAF
KRIC 180539Z 1806/1906 00000KT 5SM MIFG BKN100
      TEMPO 1806/1808 2SM BR
     FM180800 00000KT 2SM BR BKN100
     FM181000 01003KT 5SM BR SCT050 BKN100
     FM181400 04006KT P6SM SCT250=

USA.gov is the U.S. government's official web portal to all federal, state and local government web resources and services.